createdAt,value
2023-05-18T00:04:34.262Z,13.40
2023-05-18T00:09:37.874Z,12.80
2023-05-18T00:14:40.761Z,13.20
2023-05-18T00:19:46.595Z,13.00
2023-05-18T00:24:49.622Z,14.00
2023-05-18T00:29:52.708Z,12.00
2023-05-18T00:34:56.873Z,12.00
2023-05-18T00:39:59.675Z,12.60
2023-05-18T00:45:03.242Z,13.00
2023-05-18T00:50:08.677Z,13.00
2023-05-18T00:55:12.398Z,13.40
2023-05-18T01:00:15.495Z,13.20
2023-05-18T01:05:20.158Z,12.80
2023-05-18T01:10:23.433Z,11.20
2023-05-18T01:15:30.012Z,13.20
2023-05-18T01:20:38.134Z,10.80
2023-05-18T01:25:49.297Z,12.00
2023-05-18T01:30:53.694Z,12.40
2023-05-18T01:35:56.593Z,12.40
2023-05-18T01:41:04.438Z,13.80
2023-05-18T01:46:12.238Z,13.20
2023-05-18T01:51:16.218Z,12.20
2023-05-18T01:56:20.823Z,10.20
2023-05-18T02:01:25.116Z,10.20
2023-05-18T02:06:28.095Z,10.00
2023-05-18T02:11:31.052Z,12.20
2023-05-18T02:16:35.883Z,14.20
2023-05-18T02:21:38.960Z,11.60
2023-05-18T02:26:41.783Z,9.40
2023-05-18T02:31:46.021Z,9.20
2023-05-18T02:36:48.886Z,11.00
2023-05-18T02:41:51.788Z,10.20
2023-05-18T02:46:56.947Z,10.80
2023-05-18T02:51:59.750Z,9.60
2023-05-18T02:57:02.683Z,10.20
2023-05-18T03:02:18.086Z,10.20
2023-05-18T03:07:21.281Z,9.00
2023-05-18T03:12:24.731Z,12.40
2023-05-18T03:17:29.168Z,12.20
2023-05-18T03:22:32.200Z,10.40
2023-05-18T03:27:37.974Z,9.00
2023-05-18T03:32:42.723Z,10.20
2023-05-18T03:37:45.661Z,10.00
2023-05-18T03:42:48.716Z,8.80
2023-05-18T03:47:53.061Z,8.60
2023-05-18T03:52:56.002Z,8.60
2023-05-18T03:58:00.179Z,6.40
2023-05-18T04:03:04.768Z,10.80
2023-05-18T04:08:08.847Z,8.00
2023-05-18T04:13:11.925Z,10.20
2023-05-18T04:18:16.159Z,11.00
2023-05-18T04:23:19.986Z,9.00
2023-05-18T04:28:23.046Z,8.80
2023-05-18T04:33:27.222Z,8.00
2023-05-18T04:38:30.181Z,8.00
2023-05-18T04:43:33.093Z,7.00
2023-05-18T04:48:37.561Z,8.00
2023-05-18T04:53:40.599Z,8.80
2023-05-18T04:58:45.905Z,9.60
2023-05-18T05:03:50.263Z,8.20
2023-05-18T05:08:53.315Z,8.00
2023-05-18T05:13:56.530Z,6.00
2023-05-18T05:19:00.732Z,7.20
2023-05-18T05:24:05.806Z,6.00
2023-05-18T05:29:08.862Z,5.00
2023-05-18T05:34:13.456Z,7.20
2023-05-18T05:39:16.703Z,6.00
2023-05-18T05:44:19.599Z,7.00
2023-05-18T05:49:24.293Z,9.40
2023-05-18T05:54:27.380Z,6.00
2023-05-18T05:59:30.394Z,5.80
2023-05-18T06:04:35.248Z,7.40
2023-05-18T06:09:38.262Z,6.40
2023-05-18T06:14:41.230Z,6.20
2023-05-18T06:19:46.337Z,5.80
2023-05-18T06:24:49.462Z,7.20
2023-05-18T06:30:18.018Z,6.00
2023-05-18T06:35:43.435Z,5.00
2023-05-18T06:40:46.343Z,5.80
2023-05-18T06:45:49.386Z,5.00
2023-05-18T06:51:05.840Z,4.80
2023-05-18T06:56:11.726Z,6.40
2023-05-18T07:01:15.369Z,5.60
2023-05-18T07:06:19.874Z,6.00
2023-05-18T07:11:22.991Z,5.80
2023-05-18T07:16:27.451Z,6.60
2023-05-18T07:21:32.060Z,5.60
2023-05-18T07:26:34.950Z,5.80
2023-05-18T07:31:42.555Z,4.80
2023-05-18T07:36:48.832Z,3.20
2023-05-18T07:41:51.759Z,4.60
2023-05-18T07:46:54.686Z,5.00
2023-05-18T07:51:59.359Z,4.80
2023-05-18T07:57:02.300Z,5.00
2023-05-18T08:02:06.659Z,5.60
2023-05-18T08:07:12.706Z,5.00
2023-05-18T08:12:15.847Z,2.80
2023-05-18T08:17:19.693Z,5.00
2023-05-18T08:22:23.961Z,4.40
2023-05-18T08:27:27.012Z,4.60
2023-05-18T08:32:30.009Z,4.00
2023-05-18T08:37:34.293Z,4.00
2023-05-18T08:42:49.353Z,4.40
2023-05-18T08:47:53.254Z,4.00
2023-05-18T08:52:57.611Z,5.00
2023-05-18T08:58:00.675Z,4.20
2023-05-18T09:03:03.808Z,2.00
2023-05-18T09:08:08.721Z,7.40
2023-05-18T09:13:11.814Z,4.00
2023-05-18T09:18:14.744Z,4.60
2023-05-18T09:23:19.133Z,4.80
2023-05-18T09:28:27.349Z,4.00
2023-05-18T09:33:34.142Z,4.00
2023-05-18T09:38:43.273Z,4.00
2023-05-18T09:43:46.880Z,4.00
2023-05-18T09:48:51.950Z,4.00
2023-05-18T09:53:56.881Z,4.80
2023-05-18T09:58:59.876Z,4.40
2023-05-18T10:04:04.075Z,4.40
2023-05-18T10:09:15.623Z,5.00
2023-05-18T10:14:18.535Z,4.00
2023-05-18T10:19:21.471Z,4.00
2023-05-18T10:24:25.839Z,4.00
2023-05-18T10:29:29.441Z,5.00
2023-05-18T10:34:32.719Z,5.00
2023-05-18T10:39:38.005Z,4.40
2023-05-18T10:44:40.924Z,4.20
2023-05-18T10:49:44.068Z,4.20
2023-05-18T10:54:48.522Z,4.00
2023-05-18T10:59:51.443Z,5.00
2023-05-18T11:04:54.427Z,5.00
2023-05-18T11:09:58.839Z,3.60
2023-05-18T11:15:02.009Z,4.00
2023-05-18T11:20:15.613Z,2.40
2023-05-18T11:25:44.937Z,4.40
2023-05-18T11:30:49.879Z,5.20
2023-05-18T11:36:01.670Z,4.40
2023-05-18T11:41:08.475Z,5.20
2023-05-18T11:46:11.686Z,4.80
2023-05-18T11:51:14.632Z,4.00
2023-05-18T11:56:18.889Z,4.00
2023-05-18T12:01:23.655Z,3.60
2023-05-18T12:06:26.665Z,4.40
2023-05-18T12:11:31.052Z,5.00
2023-05-18T12:16:34.440Z,5.00
2023-05-18T12:21:37.339Z,4.00
2023-05-18T12:26:42.229Z,4.00
2023-05-18T12:31:45.137Z,4.20
2023-05-18T12:36:54.698Z,3.80
2023-05-18T12:42:14.493Z,5.40
2023-05-18T12:47:18.156Z,2.80
2023-05-18T12:52:22.144Z,5.00
2023-05-18T12:57:27.000Z,3.00
2023-05-18T13:02:32.230Z,140.25
2023-05-18T13:07:37.220Z,244.33
2023-05-18T13:12:42.523Z,354.75
2023-05-18T13:17:58.824Z,409.00
2023-05-18T13:23:03.629Z,340.75
2023-05-18T13:28:10.462Z,443.00
2023-05-18T13:33:13.427Z,339.50
2023-05-18T13:38:16.714Z,295.25
2023-05-18T13:43:21.008Z,228.67
2023-05-18T13:48:31.318Z,168.50
2023-05-18T13:53:40.778Z,149.25
2023-05-18T13:58:46.131Z,132.00
2023-05-18T14:03:49.156Z,116.50
2023-05-18T14:08:52.303Z,106.00
2023-05-18T14:13:56.833Z,95.75
2023-05-18T14:18:59.792Z,91.50
2023-05-18T14:24:05.820Z,83.50
2023-05-18T14:29:10.477Z,75.67
2023-05-18T14:34:13.708Z,75.67
2023-05-18T14:39:16.564Z,68.33
2023-05-18T14:44:20.762Z,64.33
2023-05-18T14:49:23.773Z,67.33
2023-05-18T14:54:26.790Z,51.00
2023-05-18T14:59:31.089Z,55.50
2023-05-18T15:04:34.185Z,44.50
2023-05-18T15:09:37.092Z,51.00
2023-05-18T15:14:41.279Z,48.25
2023-05-18T15:19:44.297Z,42.50
2023-05-18T15:24:47.229Z,44.75
2023-05-18T15:29:51.443Z,48.25
2023-05-18T15:34:54.457Z,51.00
2023-05-18T15:39:57.288Z,53.40
2023-05-18T15:45:03.096Z,45.00
2023-05-18T15:50:07.088Z,37.25
2023-05-18T15:55:10.771Z,43.40
2023-05-18T16:00:16.342Z,40.50
2023-05-18T16:05:19.419Z,35.50
2023-05-18T16:10:23.478Z,41.75
2023-05-18T16:15:29.107Z,36.00
2023-05-18T16:20:32.212Z,43.50
2023-05-18T16:25:35.382Z,38.25
2023-05-18T16:30:39.594Z,39.00
2023-05-18T16:35:42.423Z,40.00
2023-05-18T16:40:45.252Z,35.40
2023-05-18T16:45:49.428Z,31.40
2023-05-18T16:50:52.312Z,32.40
2023-05-18T16:55:55.162Z,35.60
2023-05-18T17:00:59.633Z,37.00
2023-05-18T17:06:02.566Z,30.60
2023-05-18T17:11:05.476Z,34.00
2023-05-18T17:16:09.942Z,32.40
2023-05-18T17:21:12.833Z,27.40
2023-05-18T17:26:15.844Z,33.80
2023-05-18T17:31:20.215Z,30.00
2023-05-18T17:36:23.034Z,30.40
2023-05-18T17:41:39.875Z,35.20
2023-05-18T17:46:51.324Z,27.80
2023-05-18T17:52:03.526Z,31.20
2023-05-18T17:57:12.605Z,31.00
2023-05-18T18:02:16.866Z,26.60
2023-05-18T18:07:19.797Z,25.80
2023-05-18T18:12:23.105Z,24.00
2023-05-18T18:17:27.372Z,30.60
2023-05-18T18:22:30.251Z,27.60
2023-05-18T18:27:33.140Z,27.00
2023-05-18T18:32:37.459Z,26.40
2023-05-18T18:37:40.537Z,27.40
2023-05-18T18:42:43.500Z,26.20
2023-05-18T18:47:47.694Z,29.60
2023-05-18T18:52:50.665Z,26.20
2023-05-18T18:57:53.658Z,25.80
2023-05-18T19:02:58.024Z,23.80
2023-05-18T19:08:01.728Z,27.40
2023-05-18T19:13:06.139Z,20.00
2023-05-18T19:18:10.457Z,23.00
2023-05-18T19:23:13.517Z,26.80
2023-05-18T19:28:16.460Z,23.20
2023-05-18T19:33:20.689Z,22.00
2023-05-18T19:38:23.528Z,22.20
2023-05-18T19:43:26.316Z,25.00
2023-05-18T19:48:31.403Z,19.20
2023-05-18T19:53:34.278Z,23.60
2023-05-18T19:58:37.180Z,24.00
2023-05-18T20:03:43.552Z,20.40
2023-05-18T20:08:46.652Z,21.20
2023-05-18T20:13:49.531Z,26.00
2023-05-18T20:18:53.755Z,22.20
2023-05-18T20:23:56.655Z,21.20
2023-05-18T20:28:59.490Z,20.60
2023-05-18T20:34:03.956Z,20.40
2023-05-18T20:39:07.261Z,19.20
2023-05-18T20:44:10.592Z,21.20
2023-05-18T20:49:15.413Z,19.80
2023-05-18T20:54:18.929Z,15.00
2023-05-18T20:59:22.034Z,20.00
2023-05-18T21:04:26.207Z,19.20
2023-05-18T21:09:31.200Z,18.40
2023-05-18T21:14:34.230Z,15.80
2023-05-18T21:19:38.471Z,18.00
2023-05-18T21:24:41.287Z,16.60
2023-05-18T21:29:44.130Z,19.00
2023-05-18T21:34:48.307Z,21.20
2023-05-18T21:39:51.158Z,19.20
2023-05-18T21:44:54.660Z,15.80
2023-05-18T21:49:58.815Z,14.00
2023-05-18T21:55:01.619Z,14.40
2023-05-18T22:00:07.791Z,16.20
2023-05-18T22:05:19.215Z,13.60
2023-05-18T22:10:22.049Z,15.00
2023-05-18T22:15:24.937Z,16.60
2023-05-18T22:20:29.519Z,15.20
2023-05-18T22:25:32.590Z,20.60
2023-05-18T22:30:35.558Z,17.40
2023-05-18T22:35:39.810Z,15.20
2023-05-18T22:40:42.666Z,13.80
2023-05-18T22:45:45.461Z,11.20
2023-05-18T22:50:49.648Z,14.60
2023-05-18T22:55:52.561Z,17.00
2023-05-18T23:00:56.047Z,14.80
2023-05-18T23:06:03.804Z,12.20
2023-05-18T23:11:06.750Z,15.00
2023-05-18T23:16:10.473Z,14.20
2023-05-18T23:21:14.871Z,17.40
2023-05-18T23:26:17.707Z,11.60
2023-05-18T23:31:21.905Z,18.60
2023-05-18T23:36:27.341Z,16.40
2023-05-18T23:41:31.037Z,13.80
2023-05-18T23:46:35.400Z,13.00
2023-05-18T23:51:39.575Z,11.80
2023-05-18T23:56:42.875Z,13.40
